Time;durP1;ratioP1;P1;durP2;ratioP2;P2;SDS_P1;SDS_P2;PMS_P1;PMS_P2;Temp;Humidity;BMP_temperature;BMP_pressure;BME280_temperature;BME280_humidity;BME280_pressure;Samples;Min_cycle;Max_cycle;Signal;HPM_P1;HPM_P2
2022/12/03 00:02:09;;;;;;;79.57;48.97;;;6.00;99.90;;;;;;4943081;29;20036;-77
2022/12/03 00:04:37;;;;;;;80.18;50.45;;;6.00;99.90;;;;;;4940951;29;20051;-76
2022/12/03 00:07:04;;;;;;;74.88;46.70;;;6.00;99.90;;;;;;4945821;29;20047;-75
2022/12/03 00:09:33;;;;;;;74.20;46.75;;;5.90;99.90;;;;;;4944518;28;20047;-75
2022/12/03 00:12:00;;;;;;;66.75;42.47;;;5.90;99.90;;;;;;4946609;29;20041;-76
2022/12/03 00:14:27;;;;;;;63.72;40.53;;;5.90;99.90;;;;;;4946273;28;20070;-73
2022/12/03 00:16:55;;;;;;;62.35;39.30;;;5.90;99.90;;;;;;4962739;29;20035;-77
2022/12/03 00:19:22;;;;;;;62.60;39.67;;;5.90;99.90;;;;;;4952344;29;20051;-73
2022/12/03 00:21:49;;;;;;;68.75;40.42;;;5.90;99.90;;;;;;4946336;29;20098;-75
2022/12/03 00:24:18;;;;;;;66.50;40.65;;;5.90;99.90;;;;;;4929004;29;20051;-76
2022/12/03 00:26:47;;;;;;;61.85;38.65;;;5.90;99.90;;;;;;4926858;29;20119;-75
2022/12/03 00:29:14;;;;;;;61.20;39.00;;;5.90;99.90;;;;;;4943096;29;20086;-76
2022/12/03 00:31:42;;;;;;;63.58;39.20;;;5.80;99.90;;;;;;4945035;28;20388;-74
2022/12/03 00:34:10;;;;;;;69.13;40.97;;;5.80;99.90;;;;;;4930357;29;20146;-74
2022/12/03 00:36:38;;;;;;;63.95;39.75;;;5.80;99.90;;;;;;4928299;29;20568;-74
2022/12/03 00:39:05;;;;;;;67.55;42.97;;;5.80;99.90;;;;;;4944631;29;20070;-77
2022/12/03 00:41:32;;;;;;;68.43;41.05;;;5.80;99.90;;;;;;4945533;29;20094;-73
2022/12/03 00:44:01;;;;;;;72.03;43.67;;;5.80;99.90;;;;;;4927369;29;20048;-74
2022/12/03 00:46:28;;;;;;;75.38;46.15;;;5.80;99.90;;;;;;4945021;29;20407;-74
2022/12/03 00:48:56;;;;;;;77.05;46.40;;;5.80;99.90;;;;;;4927631;29;20119;-74
2022/12/03 00:51:23;;;;;;;76.75;45.88;;;5.80;99.90;;;;;;4927805;29;20043;-74
2022/12/03 00:53:50;;;;;;;75.85;46.20;;;5.80;99.90;;;;;;4942517;28;20051;-75
2022/12/03 00:56:18;;;;;;;72.43;46.33;;;5.80;99.90;;;;;;4942440;29;20051;-73
2022/12/03 00:58:45;;;;;;;78.10;45.22;;;5.80;99.90;;;;;;4944001;29;20031;-74
2022/12/03 01:01:14;;;;;;;77.22;44.17;;;5.80;99.90;;;;;;4944953;29;20046;-72
2022/12/03 01:03:41;;;;;;;79.18;47.35;;;5.80;99.90;;;;;;4927275;29;20134;-73
2022/12/03 01:06:09;;;;;;;78.03;47.38;;;5.80;99.90;;;;;;4944104;29;20043;-73
2022/12/03 01:08:36;;;;;;;84.63;47.17;;;5.80;99.90;;;;;;4927469;29;20047;-75
2022/12/03 01:11:36;;;;;;;86.40;50.08;;;5.80;99.90;;;;;;4927497;29;20051;-76
2022/12/03 01:13:51;;;;;;;86.00;48.50;;;5.80;99.90;;;;;;4943868;29;20055;-75
2022/12/03 01:16:19;;;;;;;77.40;46.67;;;5.70;99.90;;;;;;4942330;29;20131;-77
2022/12/03 01:18:47;;;;;;;76.00;44.60;;;5.70;99.90;;;;;;4946412;29;20051;-73
2022/12/03 01:21:14;;;;;;;68.15;41.50;;;5.70;99.90;;;;;;4944099;29;20074;-75
2022/12/03 01:23:41;;;;;;;77.82;44.80;;;5.60;99.90;;;;;;4944898;29;20051;-74
2022/12/03 01:26:08;;;;;;;78.88;44.13;;;5.50;99.90;;;;;;4926841;29;20516;-75
2022/12/03 01:28:36;;;;;;;73.43;42.88;;;5.50;99.90;;;;;;4927519;29;20066;-76
2022/12/03 01:33:50;;;;;;;71.50;40.78;;;5.50;99.90;;;;;;4943987;28;20048;-79
2022/12/03 01:36:17;;;;;;;71.13;41.15;;;5.60;99.90;;;;;;4943230;29;20106;-77
2022/12/03 01:38:44;;;;;;;68.30;39.13;;;5.70;99.90;;;;;;4944414;29;20039;-72
2022/12/03 01:41:12;;;;;;;67.40;38.75;;;5.80;99.90;;;;;;4927571;29;20051;-74
2022/12/03 01:43:39;;;;;;;67.20;37.78;;;5.80;99.90;;;;;;4927165;29;20055;-74
2022/12/03 01:46:07;;;;;;;71.35;40.70;;;5.80;99.90;;;;;;4943107;29;20054;-75
2022/12/03 01:48:37;;;;;;;71.38;41.30;;;5.80;99.90;;;;;;4932319;29;20074;-73
2022/12/03 01:51:07;;;;;;;67.28;38.85;;;5.80;99.90;;;;;;4927066;29;20044;-77
2022/12/03 01:53:34;;;;;;;76.18;41.45;;;5.80;99.90;;;;;;4942998;28;20130;-74
2022/12/03 01:56:02;;;;;;;75.95;42.42;;;5.70;99.90;;;;;;4940772;29;20480;-73
2022/12/03 01:58:30;;;;;;;75.32;41.63;;;5.70;99.90;;;;;;4927599;29;20426;-74
2022/12/03 02:00:58;;;;;;;84.03;47.80;;;5.80;99.90;;;;;;4926690;29;20184;-74
2022/12/03 02:03:26;;;;;;;77.97;42.97;;;5.90;99.90;;;;;;4927528;29;20047;-73
2022/12/03 02:05:55;;;;;;;78.60;42.08;;;5.90;99.90;;;;;;4949651;29;20964;-73
2022/12/03 02:08:32;;;;;;;75.50;42.22;;;5.90;99.90;;;;;;4943429;29;20039;-74
2022/12/03 02:11:03;;;;;;;74.78;42.78;;;5.90;99.90;;;;;;4926656;29;20502;-74
2022/12/03 02:13:32;;;;;;;77.13;42.45;;;5.80;99.90;;;;;;4943011;29;20506;-75
2022/12/03 02:16:00;;;;;;;81.57;43.17;;;5.80;99.90;;;;;;4943097;29;20055;-73
2022/12/03 02:18:27;;;;;;;81.38;43.60;;;5.80;99.90;;;;;;4943583;29;20101;-74
2022/12/03 02:21:02;;;;;;;81.72;43.05;;;5.80;99.90;;;;;;4924812;29;20047;-74
2022/12/03 02:23:38;;;;;;;78.20;43.03;;;5.60;99.90;;;;;;4954195;28;20054;-74
2022/12/03 02:26:07;;;;;;;85.72;44.45;;;5.50;99.90;;;;;;4950088;29;20047;-75
2022/12/03 02:28:34;;;;;;;79.78;43.53;;;5.50;99.90;;;;;;4966990;28;20060;-76
2022/12/03 02:31:03;;;;;;;73.25;40.45;;;5.40;99.90;;;;;;4946617;29;20058;-74
2022/12/03 02:33:31;;;;;;;72.32;40.22;;;5.40;99.90;;;;;;4927162;29;20043;-75
2022/12/03 02:35:59;;;;;;;67.93;38.97;;;5.50;99.90;;;;;;4926472;29;20059;-75
2022/12/03 02:38:29;;;;;;;64.00;37.85;;;5.50;99.90;;;;;;4943094;29;20047;-75
2022/12/03 02:41:00;;;;;;;68.75;37.78;;;5.60;99.90;;;;;;4923732;29;20039;-73
2022/12/03 02:43:28;;;;;;;76.50;41.10;;;5.50;99.90;;;;;;4946091;29;20404;-76
2022/12/03 02:45:58;;;;;;;74.95;41.75;;;5.50;99.90;;;;;;4941788;29;20052;-75
2022/12/03 02:48:29;;;;;;;77.55;41.00;;;5.50;99.90;;;;;;4944918;29;20039;-74
2022/12/03 02:50:59;;;;;;;81.13;43.90;;;5.40;99.90;;;;;;4948703;29;20032;-75
2022/12/03 02:53:29;;;;;;;95.50;47.17;;;5.40;99.90;;;;;;4949627;29;20039;-74
2022/12/03 02:55:59;;;;;;;84.57;44.60;;;5.40;99.90;;;;;;4952304;29;20047;-76
2022/12/03 02:58:30;;;;;;;87.65;43.05;;;5.50;99.90;;;;;;4952445;29;20051;-76
2022/12/03 03:00:58;;;;;;;88.60;46.53;;;5.50;99.90;;;;;;4946653;29;20075;-77
2022/12/03 03:03:27;;;;;;;84.60;45.88;;;5.50;99.90;;;;;;4947525;28;20479;-76
2022/12/03 03:05:56;;;;;;;89.40;45.33;;;5.50;99.90;;;;;;4944917;29;20071;-74
2022/12/03 03:08:25;;;;;;;78.03;42.40;;;5.60;99.90;;;;;;4950952;28;20028;-75
2022/12/03 03:10:53;;;;;;;79.57;42.08;;;5.70;99.90;;;;;;4966888;28;20039;-75
2022/12/03 03:13:21;;;;;;;81.25;42.78;;;5.70;99.90;;;;;;4926847;29;20054;-73
2022/12/03 03:15:50;;;;;;;83.60;42.58;;;5.60;99.90;;;;;;4945050;29;20126;-75
2022/12/03 03:18:18;;;;;;;82.80;43.55;;;5.60;99.90;;;;;;4946666;29;20051;-73
2022/12/03 03:20:45;;;;;;;80.80;43.42;;;5.60;99.90;;;;;;4935620;29;20043;-73
2022/12/03 03:23:18;;;;;;;80.78;43.25;;;5.70;99.90;;;;;;4942479;29;20404;-74
2022/12/03 03:25:49;;;;;;;79.13;41.83;;;5.70;99.90;;;;;;4925012;29;20062;-76
2022/12/03 03:28:17;;;;;;;77.97;42.85;;;5.80;99.90;;;;;;4941343;29;20039;-74
2022/12/03 03:30:45;;;;;;;84.78;44.28;;;5.70;99.90;;;;;;4942507;29;20071;-76
2022/12/03 03:33:15;;;;;;;81.80;43.42;;;5.80;99.90;;;;;;4941508;29;20046;-75
2022/12/03 03:35:45;;;;;;;80.45;43.78;;;5.80;99.90;;;;;;4943443;29;20047;-75
2022/12/03 03:38:13;;;;;;;78.57;43.35;;;5.80;99.90;;;;;;4935536;29;20066;-74
2022/12/03 03:40:40;;;;;;;78.45;43.60;;;5.80;99.90;;;;;;4935665;29;20059;-76
2022/12/03 03:43:08;;;;;;;77.40;42.63;;;5.80;99.90;;;;;;4942151;29;20648;-75
2022/12/03 03:45:35;;;;;;;78.18;43.05;;;5.80;99.90;;;;;;4925259;29;20458;-75
2022/12/03 03:48:02;;;;;;;79.45;42.88;;;5.70;99.90;;;;;;4924488;29;20080;-74
2022/12/03 03:50:32;;;;;;;82.88;45.00;;;5.70;99.90;;;;;;4924878;29;20039;-72
2022/12/03 03:53:02;;;;;;;76.22;42.47;;;5.70;99.90;;;;;;4943327;29;20090;-73
2022/12/03 03:55:30;;;;;;;74.65;42.63;;;5.70;99.90;;;;;;4947193;29;20069;-74
2022/12/03 03:57:57;;;;;;;75.90;41.97;;;5.70;99.90;;;;;;4945859;29;20043;-74
2022/12/03 04:00:25;;;;;;;73.22;41.65;;;5.60;99.90;;;;;;4925209;29;20048;-74
2022/12/03 04:02:55;;;;;;;78.40;42.83;;;5.60;99.90;;;;;;4941811;29;20039;-73
2022/12/03 04:05:23;;;;;;;75.45;40.80;;;5.50;99.90;;;;;;4925096;29;20055;-73
2022/12/03 04:07:52;;;;;;;79.00;41.67;;;5.50;99.90;;;;;;4922643;29;20051;-74
2022/12/03 04:13:04;;;;;;;73.47;40.83;;;5.60;99.90;;;;;;4941243;29;20130;-75
2022/12/03 04:15:32;;;;;;;74.35;39.67;;;5.60;99.90;;;;;;4942765;29;20066;-73
2022/12/03 04:20:44;;;;;;;75.35;42.17;;;5.50;99.90;;;;;;4933644;29;20047;-74
2022/12/03 04:23:12;;;;;;;73.68;39.78;;;5.50;99.90;;;;;;4937463;29;20047;-75
2022/12/03 04:36:35;;;;;;;76.63;41.97;;;5.50;99.90;;;;;;4917997;29;20063;-73
2022/12/03 04:39:04;;;;;;;75.30;41.15;;;5.50;99.90;;;;;;4926185;29;20058;-74
2022/12/03 04:41:31;;;;;;;77.38;40.75;;;5.60;99.90;;;;;;4939776;29;20044;-76
2022/12/03 04:46:44;;;;;;;70.35;39.20;;;5.50;99.90;;;;;;4923569;29;20051;-75
2022/12/03 04:49:13;;;;;;;78.68;40.92;;;5.50;99.90;;;;;;4940386;29;20554;-75
2022/12/03 04:51:40;;;;;;;73.72;40.65;;;5.40;99.90;;;;;;4942320;28;20102;-75
2022/12/03 04:54:09;;;;;;;90.18;45.88;;;5.50;99.90;;;;;;4946516;29;20039;-74
2022/12/03 04:56:37;;;;;;;104.55;52.95;;;5.50;99.90;;;;;;4926698;29;20048;-75
2022/12/03 04:59:04;;;;;;;99.90;53.35;;;5.60;99.90;;;;;;4945047;29;20504;-75
2022/12/03 05:01:32;;;;;;;87.35;45.22;;;5.60;99.90;;;;;;4940891;29;20072;-76
2022/12/03 05:03:59;;;;;;;82.28;43.75;;;5.50;99.90;;;;;;4926281;29;20047;-79
2022/12/03 05:06:26;;;;;;;75.75;42.15;;;5.50;99.90;;;;;;4926135;29;20114;-76
2022/12/03 05:08:54;;;;;;;83.60;43.75;;;5.60;99.90;;;;;;4927677;29;20059;-80
2022/12/03 05:11:22;;;;;;;85.22;45.90;;;5.60;99.90;;;;;;4946227;28;20051;-76
2022/12/03 05:13:51;;;;;;;87.25;48.53;;;5.50;99.90;;;;;;4930607;29;20039;-78
2022/12/03 05:16:18;;;;;;;102.43;55.05;;;5.50;99.90;;;;;;4947480;29;20058;-76
2022/12/03 05:18:45;;;;;;;105.22;52.28;;;5.40;99.90;;;;;;4932532;29;20057;-80
2022/12/03 05:21:14;;;;;;;86.78;46.38;;;5.40;99.90;;;;;;4952967;29;20596;-78
2022/12/03 05:23:42;;;;;;;88.18;44.13;;;5.40;99.90;;;;;;4951760;29;20051;-76
2022/12/03 05:26:10;;;;;;;81.07;42.17;;;5.40;99.90;;;;;;4928392;29;20043;-79
2022/12/03 05:28:39;;;;;;;82.57;43.78;;;5.50;99.90;;;;;;4944382;29;20502;-78
2022/12/03 05:31:07;;;;;;;76.47;41.15;;;5.50;99.90;;;;;;4924361;29;20046;-77
2022/12/03 05:33:34;;;;;;;78.00;41.35;;;5.50;99.90;;;;;;4928632;29;20043;-75
2022/12/03 05:36:03;;;;;;;74.43;42.22;;;5.50;99.90;;;;;;4927335;29;20051;-77
2022/12/03 05:38:31;;;;;;;69.78;38.72;;;5.40;99.90;;;;;;4927173;29;20079;-74
2022/12/03 05:40:58;;;;;;;71.68;40.10;;;5.40;99.90;;;;;;4927484;29;20063;-77
2022/12/03 05:43:24;;;;;;;73.68;39.40;;;5.40;99.90;;;;;;4926900;29;20035;-75
2022/12/03 05:45:53;;;;;;;70.80;38.90;;;5.40;99.90;;;;;;4934073;29;20063;-75
2022/12/03 05:48:21;;;;;;;64.97;37.60;;;5.40;99.90;;;;;;4942910;29;20099;-76
2022/12/03 05:50:57;;;;;;;65.80;36.65;;;5.40;99.90;;;;;;4947206;29;20047;-76
2022/12/03 05:53:24;;;;;;;66.70;36.67;;;5.30;99.90;;;;;;4928440;29;20047;-78
2022/12/03 05:55:52;;;;;;;71.20;37.97;;;5.30;99.90;;;;;;4931915;29;20051;-76
2022/12/03 05:58:19;;;;;;;72.75;39.25;;;5.30;99.90;;;;;;4950672;29;20039;-76
2022/12/03 06:00:46;;;;;;;69.05;40.13;;;5.30;99.90;;;;;;4950664;29;20123;-78
2022/12/03 06:03:16;;;;;;;67.85;39.88;;;5.20;99.90;;;;;;4959742;28;20130;-78
2022/12/03 06:05:43;;;;;;;78.13;40.85;;;5.30;99.90;;;;;;4937189;29;20039;-76
2022/12/03 06:08:10;;;;;;;74.82;40.90;;;5.20;99.90;;;;;;4951893;28;20043;-77
2022/12/03 06:10:38;;;;;;;72.90;40.65;;;5.30;99.90;;;;;;4952267;28;20042;-74
2022/12/03 06:13:05;;;;;;;70.97;37.42;;;5.30;99.90;;;;;;4947255;29;20044;-75
2022/12/03 06:15:32;;;;;;;73.55;39.33;;;5.10;99.90;;;;;;4949791;28;20062;-74
2022/12/03 06:18:00;;;;;;;71.22;37.28;;;5.20;99.90;;;;;;4972842;28;20055;-78
2022/12/03 06:20:28;;;;;;;68.93;36.70;;;5.30;99.90;;;;;;4950017;29;20054;-75
2022/12/03 06:22:56;;;;;;;63.10;35.65;;;5.30;99.90;;;;;;4927147;29;20047;-76
2022/12/03 06:25:23;;;;;;;68.82;37.42;;;5.30;99.90;;;;;;4928828;29;20043;-77
2022/12/03 06:27:50;;;;;;;68.78;36.13;;;5.40;99.90;;;;;;4950031;29;20040;-75
2022/12/03 06:30:18;;;;;;;68.90;38.30;;;5.40;99.90;;;;;;4944110;29;20051;-77
2022/12/03 06:32:45;;;;;;;72.32;39.20;;;5.40;99.90;;;;;;4934605;29;20130;-75
2022/12/03 06:35:15;;;;;;;77.03;39.70;;;5.40;99.90;;;;;;4940529;29;20051;-73
2022/12/03 06:37:43;;;;;;;76.10;41.38;;;5.40;99.90;;;;;;4954563;29;20047;-78
2022/12/03 06:40:12;;;;;;;69.55;38.95;;;5.30;99.90;;;;;;4946136;29;20102;-76
2022/12/03 06:42:39;;;;;;;78.20;42.13;;;5.40;99.90;;;;;;4941146;29;20051;-74
2022/12/03 06:45:07;;;;;;;71.55;38.35;;;5.40;99.90;;;;;;4925655;29;20047;-75
2022/12/03 06:47:35;;;;;;;76.57;40.97;;;5.50;99.90;;;;;;4942886;29;20051;-74
2022/12/03 06:50:02;;;;;;;76.03;41.03;;;5.70;99.90;;;;;;4925624;29;20071;-76
2022/12/03 06:52:29;;;;;;;78.18;39.30;;;5.60;99.90;;;;;;4926232;29;20415;-77
2022/12/03 06:54:58;;;;;;;77.43;40.00;;;5.60;99.90;;;;;;4925866;29;20043;-74
2022/12/03 06:57:25;;;;;;;81.07;40.10;;;5.60;99.90;;;;;;4924516;29;20062;-78
2022/12/03 06:59:53;;;;;;;79.82;39.05;;;5.70;99.90;;;;;;4923976;29;20036;-77
2022/12/03 07:02:21;;;;;;;79.15;39.92;;;5.80;99.90;;;;;;4944647;28;20044;-78
2022/12/03 07:04:49;;;;;;;79.13;39.30;;;5.80;99.90;;;;;;4924900;29;20047;-75
2022/12/03 07:07:16;;;;;;;82.32;43.05;;;5.80;99.90;;;;;;4945307;29;20039;-80
2022/12/03 07:09:47;;;;;;;75.70;43.25;;;5.80;99.90;;;;;;4937190;29;20039;-81
2022/12/03 07:12:19;;;;;;;88.35;45.75;;;5.80;99.90;;;;;;4930108;29;20522;-80
2022/12/03 07:14:50;;;;;;;92.28;45.15;;;5.80;99.90;;;;;;4942249;28;20047;-81
2022/12/03 07:17:21;;;;;;;100.95;47.83;;;5.80;99.90;;;;;;4937707;29;20586;-79
2022/12/03 07:19:49;;;;;;;123.55;52.42;;;5.70;99.90;;;;;;4924989;29;20514;-79
2022/12/03 07:22:21;;;;;;;108.15;51.22;;;5.80;99.90;;;;;;4925303;29;20530;-79
2022/12/03 07:24:57;;;;;;;99.93;50.60;;;5.80;99.90;;;;;;4924946;29;20130;-79
2022/12/03 07:27:28;;;;;;;108.75;50.33;;;5.80;99.90;;;;;;4935255;29;20039;-79
2022/12/03 07:29:59;;;;;;;104.63;50.15;;;5.80;99.90;;;;;;4924412;29;20384;-78
2022/12/03 07:32:38;;;;;;;124.30;55.70;;;5.70;99.90;;;;;;4924313;29;20203;-78
2022/12/03 07:35:07;;;;;;;127.43;51.63;;;5.70;99.90;;;;;;4925786;29;20423;-78
2022/12/03 07:40:57;;;;;;;91.65;47.25;;;5.80;99.90;;;;;;4923642;29;20058;-78
2022/12/03 07:43:52;;;;;;;103.47;48.10;;;5.90;99.90;;;;;;4941469;29;20142;-79
2022/12/03 07:49:05;;;;;;;110.05;55.38;;;6.00;99.90;;;;;;4923502;29;20046;-78
2022/12/03 07:51:37;;;;;;;99.57;53.22;;;6.00;99.90;;;;;;4926006;29;20050;-78
2022/12/03 07:54:05;;;;;;;110.03;56.05;;;6.00;99.90;;;;;;4924630;29;20459;-78
2022/12/03 07:56:36;;;;;;;91.95;49.00;;;6.00;99.90;;;;;;4923209;29;20150;-79
2022/12/03 07:59:22;;;;;;;104.22;51.42;;;6.10;99.90;;;;;;4940300;28;20078;-77
2022/12/03 08:05:17;;;;;;;92.97;44.75;;;6.10;99.90;;;;;;4941481;29;20073;-79
2022/12/03 08:07:57;;;;;;;91.28;47.55;;;6.10;99.90;;;;;;4920558;29;20046;-79
2022/12/03 08:10:31;;;;;;;83.80;43.45;;;6.20;99.90;;;;;;4948652;29;20394;-79
2022/12/03 08:13:23;;;;;;;84.10;43.47;;;6.10;99.90;;;;;;4924943;29;20066;-79
2022/12/03 08:16:19;;;;;;;84.75;44.55;;;6.20;99.90;;;;;;4941166;29;20059;-80
2022/12/03 08:19:04;;;;;;;89.32;45.10;;;6.30;99.90;;;;;;4925093;29;20480;-78
2022/12/03 08:21:39;;;;;;;84.93;45.40;;;6.50;99.90;;;;;;4925239;29;20043;-78
2022/12/03 08:24:15;;;;;;;81.20;45.28;;;6.50;99.90;;;;;;4927438;29;20073;-78
2022/12/03 08:26:44;;;;;;;79.72;42.65;;;6.60;99.90;;;;;;4942098;29;20054;-79
2022/12/03 08:29:14;;;;;;;78.95;42.28;;;6.60;99.90;;;;;;4945583;29;20046;-79
2022/12/03 08:31:47;;;;;;;84.72;44.72;;;6.60;99.90;;;;;;4943082;28;20040;-78
2022/12/03 08:34:18;;;;;;;82.95;45.13;;;6.60;99.90;;;;;;4943920;29;20051;-78
2022/12/03 08:36:47;;;;;;;83.45;45.50;;;6.50;99.90;;;;;;4945214;29;20050;-74
2022/12/03 08:39:32;;;;;;;84.88;43.30;;;6.50;99.90;;;;;;4945095;29;20036;-76
2022/12/03 08:44:54;;;;;;;85.05;42.90;;;6.40;99.90;;;;;;4943098;29;20044;-77
2022/12/03 08:47:25;;;;;;;86.97;45.13;;;6.30;99.90;;;;;;4944768;29;20043;-77
2022/12/03 08:49:56;;;;;;;89.05;46.80;;;6.30;99.90;;;;;;4944267;29;20035;-77
2022/12/03 08:52:31;;;;;;;85.75;45.28;;;6.40;99.90;;;;;;4943076;29;20071;-77
2022/12/03 08:55:00;;;;;;;82.88;45.90;;;6.30;99.90;;;;;;4943601;29;20089;-76
2022/12/03 08:57:29;;;;;;;81.30;45.03;;;6.30;99.90;;;;;;4943260;29;20411;-78
2022/12/03 09:00:00;;;;;;;87.47;45.15;;;6.30;99.90;;;;;;4926251;29;20048;-78
2022/12/03 09:02:33;;;;;;;81.28;44.22;;;6.40;99.90;;;;;;4946116;28;20094;-76
2022/12/03 09:05:14;;;;;;;83.68;45.25;;;6.50;99.90;;;;;;4927305;29;20051;-76
2022/12/03 09:07:41;;;;;;;79.80;42.45;;;6.30;99.90;;;;;;4941846;29;20142;-77
2022/12/03 09:10:09;;;;;;;81.78;44.63;;;6.20;99.90;;;;;;4945391;29;20070;-79
2022/12/03 09:12:36;;;;;;;86.60;46.05;;;6.20;99.90;;;;;;4943165;29;20039;-78
2022/12/03 09:15:04;;;;;;;87.78;47.85;;;6.20;99.90;;;;;;4925581;29;20079;-76
2022/12/03 09:17:33;;;;;;;81.43;44.35;;;6.20;99.90;;;;;;4943652;29;20047;-78
2022/12/03 09:20:00;;;;;;;83.93;47.40;;;6.30;99.90;;;;;;4942930;28;20050;-76
2022/12/03 09:22:28;;;;;;;84.55;47.80;;;6.50;99.90;;;;;;4927898;29;20047;-74
2022/12/03 09:24:55;;;;;;;83.35;46.38;;;6.80;99.90;;;;;;4944234;29;20130;-78
2022/12/03 09:27:23;;;;;;;87.25;47.42;;;6.90;99.90;;;;;;4942512;29;20074;-77
2022/12/03 09:29:50;;;;;;;84.13;48.10;;;6.80;99.90;;;;;;4943402;29;20036;-76
2022/12/03 09:32:20;;;;;;;85.38;46.42;;;7.00;99.90;;;;;;4937273;29;20113;-76
2022/12/03 09:34:49;;;;;;;86.53;46.38;;;7.20;99.90;;;;;;4945340;29;20075;-76
2022/12/03 09:37:17;;;;;;;82.13;46.63;;;7.30;99.90;;;;;;4940016;29;20056;-76
2022/12/03 09:39:44;;;;;;;79.10;44.70;;;7.50;99.90;;;;;;4957427;29;20504;-73
2022/12/03 09:42:12;;;;;;;71.50;41.05;;;7.60;99.90;;;;;;4943536;28;20055;-75
2022/12/03 09:44:39;;;;;;;86.65;47.50;;;7.40;99.90;;;;;;4944497;29;20043;-76
2022/12/03 09:47:08;;;;;;;79.00;43.42;;;7.30;99.90;;;;;;4949201;29;20122;-76
2022/12/03 09:49:38;;;;;;;80.93;43.90;;;7.40;99.90;;;;;;4947381;29;20042;-76
2022/12/03 09:52:07;;;;;;;81.97;45.67;;;7.40;99.90;;;;;;4968444;28;20016;-77
2022/12/03 09:54:36;;;;;;;89.22;47.55;;;7.40;99.90;;;;;;4942630;29;20035;-79
2022/12/03 09:57:11;;;;;;;91.07;47.67;;;7.50;99.90;;;;;;4941651;29;20054;-77
2022/12/03 09:59:39;;;;;;;78.93;46.38;;;7.60;99.90;;;;;;4957462;29;20043;-75
2022/12/03 10:02:16;;;;;;;93.35;50.28;;;7.60;99.90;;;;;;4956788;28;20139;-76
2022/12/03 10:04:43;;;;;;;87.85;48.83;;;7.60;99.90;;;;;;4939282;29;20118;-76
2022/12/03 10:07:12;;;;;;;86.85;47.92;;;7.50;99.90;;;;;;4956435;29;20051;-77
2022/12/03 10:09:42;;;;;;;86.07;49.88;;;7.50;99.90;;;;;;4955522;29;20043;-77
2022/12/03 10:12:13;;;;;;;99.82;54.35;;;7.60;99.90;;;;;;4952372;29;20046;-79
2022/12/03 10:14:42;;;;;;;92.15;50.20;;;7.70;99.90;;;;;;4944686;29;20206;-76
2022/12/03 10:17:13;;;;;;;96.20;51.83;;;7.70;99.90;;;;;;4941490;29;20079;-75
2022/12/03 10:19:41;;;;;;;112.50;55.55;;;7.60;99.90;;;;;;4944546;29;20047;-75
2022/12/03 10:22:09;;;;;;;106.22;56.72;;;7.60;99.90;;;;;;4946541;29;20075;-78
2022/12/03 10:24:38;;;;;;;104.50;56.63;;;7.60;99.90;;;;;;4941834;29;20102;-77
2022/12/03 10:27:21;;;;;;;103.50;56.50;;;7.60;99.90;;;;;;4943142;29;20043;-79
2022/12/03 10:29:56;;;;;;;107.22;54.53;;;7.60;99.90;;;;;;4942362;29;20051;-78
2022/12/03 10:32:26;;;;;;;103.47;53.50;;;7.70;99.90;;;;;;4943378;29;20040;-76
2022/12/03 10:35:09;;;;;;;94.68;53.50;;;7.70;99.90;;;;;;4942459;29;20035;-79
2022/12/03 10:37:37;;;;;;;100.55;54.15;;;7.60;99.90;;;;;;4931108;29;20401;-77
2022/12/03 10:40:08;;;;;;;103.63;55.03;;;7.60;99.90;;;;;;4926899;29;20052;-76
2022/12/03 10:42:37;;;;;;;94.25;53.22;;;7.70;99.90;;;;;;4943761;29;20047;-76
2022/12/03 10:45:13;;;;;;;93.60;50.45;;;7.70;99.90;;;;;;4943045;29;20043;-76
2022/12/03 10:47:41;;;;;;;100.65;55.63;;;7.60;99.90;;;;;;4924522;29;20050;-75
2022/12/03 10:50:17;;;;;;;105.82;56.22;;;7.60;99.90;;;;;;4945041;28;20047;-75
2022/12/03 10:52:45;;;;;;;89.80;51.22;;;7.70;99.90;;;;;;4951684;29;20130;-73
2022/12/03 10:55:15;;;;;;;93.57;52.47;;;7.70;99.90;;;;;;4951391;29;20103;-80
2022/12/03 10:57:45;;;;;;;98.40;52.88;;;7.80;99.90;;;;;;4939756;29;20059;-74
2022/12/03 11:00:17;;;;;;;110.78;60.28;;;7.70;99.90;;;;;;4943617;28;20047;-78
2022/12/03 11:02:44;;;;;;;137.35;76.13;;;7.50;99.90;;;;;;4942936;29;20062;-74
2022/12/03 11:05:15;;;;;;;147.77;81.10;;;7.40;99.90;;;;;;4943685;29;20143;-77
2022/12/03 11:07:43;;;;;;;142.23;79.40;;;7.50;99.90;;;;;;4942577;29;20047;-77
2022/12/03 11:10:16;;;;;;;148.35;80.28;;;7.60;99.90;;;;;;4943498;29;20047;-75
2022/12/03 11:13:22;;;;;;;144.95;79.78;;;7.70;99.90;;;;;;4927577;29;20090;-76
2022/12/03 11:15:51;;;;;;;141.30;77.50;;;7.90;99.90;;;;;;4926623;29;20083;-77
2022/12/03 11:18:52;;;;;;;143.50;81.85;;;8.00;99.90;;;;;;4943822;29;20086;-76
2022/12/03 11:21:19;;;;;;;158.63;89.35;;;8.10;99.90;;;;;;4944261;28;20439;-77
2022/12/03 11:24:15;;;;;;;161.20;88.50;;;8.30;99.90;;;;;;4943720;29;20048;-78
2022/12/03 11:27:22;;;;;;;152.77;85.13;;;8.40;99.90;;;;;;4942141;29;20134;-75
2022/12/03 11:29:53;;;;;;;153.55;87.75;;;8.60;99.90;;;;;;4936633;28;20064;-77
2022/12/03 11:33:06;;;;;;;163.63;92.78;;;8.80;99.90;;;;;;4946036;29;20051;-75
2022/12/03 11:36:15;;;;;;;159.60;90.93;;;9.00;99.90;;;;;;4942481;29;20130;-74
2022/12/03 11:38:50;;;;;;;150.93;84.80;;;9.20;99.90;;;;;;4941845;29;20063;-75
2022/12/03 11:41:19;;;;;;;140.98;81.07;;;9.30;99.90;;;;;;4947741;29;20070;-77
2022/12/03 11:44:28;;;;;;;138.85;80.60;;;9.40;99.90;;;;;;4942625;29;20044;-73
2022/12/03 11:46:58;;;;;;;132.88;77.53;;;9.40;99.90;;;;;;4940701;29;20143;-74
2022/12/03 11:49:48;;;;;;;127.00;74.45;;;9.50;99.90;;;;;;4944599;28;20571;-79
2022/12/03 11:52:27;;;;;;;148.45;85.70;;;9.50;99.90;;;;;;4942375;29;20087;-78
2022/12/03 11:54:58;;;;;;;162.55;92.30;;;9.50;99.90;;;;;;4941613;29;20043;-73
2022/12/03 11:57:28;;;;;;;155.52;91.30;;;9.60;99.90;;;;;;4941871;29;20051;-74
2022/12/03 12:00:03;;;;;;;153.00;88.30;;;9.60;99.90;;;;;;4949167;29;20051;-75
2022/12/03 12:02:43;;;;;;;154.18;89.68;;;9.70;99.90;;;;;;4957017;29;20058;-76
2022/12/03 12:05:23;;;;;;;143.95;85.45;;;9.90;99.90;;;;;;4965168;29;20043;-76
2022/12/03 12:07:56;;;;;;;147.98;85.93;;;10.00;99.90;;;;;;4949688;29;20056;-74
2022/12/03 12:10:39;;;;;;;151.65;86.18;;;10.00;99.90;;;;;;4958219;29;20040;-76
2022/12/03 12:13:07;;;;;;;145.95;85.15;;;9.90;99.90;;;;;;4964530;29;20130;-75
2022/12/03 12:15:43;;;;;;;142.38;85.68;;;9.70;99.90;;;;;;4951504;29;20059;-73
2022/12/03 12:18:40;;;;;;;147.48;85.95;;;9.50;99.90;;;;;;4950803;29;20059;-77
2022/12/03 12:21:39;;;;;;;139.60;80.80;;;9.50;99.90;;;;;;4953116;29;20047;-75
2022/12/03 12:24:31;;;;;;;137.32;80.15;;;9.30;99.90;;;;;;4945608;29;20488;-76
2022/12/03 12:27:00;;;;;;;126.82;76.80;;;9.30;99.90;;;;;;4944055;29;20040;-75
2022/12/03 12:29:28;;;;;;;138.68;81.40;;;9.40;99.90;;;;;;4944738;28;20047;-75
2022/12/03 12:32:02;;;;;;;136.13;82.00;;;9.60;99.90;;;;;;4929259;29;20051;-75
2022/12/03 12:34:31;;;;;;;144.48;81.75;;;9.80;99.90;;;;;;4949123;29;20046;-78
2022/12/03 12:37:00;;;;;;;127.82;77.30;;;9.80;99.90;;;;;;4945640;29;20566;-78
2022/12/03 12:39:27;;;;;;;129.77;78.85;;;9.90;99.90;;;;;;4944699;28;20046;-78
2022/12/03 12:41:56;;;;;;;128.25;79.00;;;9.90;99.90;;;;;;4945350;29;20630;-75
2022/12/03 12:44:25;;;;;;;135.88;81.57;;;10.00;99.90;;;;;;4944876;29;20047;-74
2022/12/03 12:46:54;;;;;;;152.43;88.35;;;10.10;99.90;;;;;;4942014;29;20043;-74
2022/12/03 12:49:25;;;;;;;132.30;80.43;;;10.20;99.90;;;;;;4943389;28;20066;-73
2022/12/03 12:51:53;;;;;;;125.53;74.05;;;10.10;99.90;;;;;;4946744;29;20044;-77
2022/12/03 12:54:21;;;;;;;120.70;74.40;;;10.00;99.90;;;;;;4944227;29;20039;-77
2022/12/03 12:56:52;;;;;;;118.60;72.35;;;10.10;99.90;;;;;;4944607;29;20039;-74
2022/12/03 12:59:23;;;;;;;127.05;76.35;;;10.10;99.90;;;;;;4945235;29;20047;-74
2022/12/03 13:01:51;;;;;;;118.75;71.50;;;10.10;99.90;;;;;;4957091;29;20051;-77
2022/12/03 13:04:20;;;;;;;115.90;68.25;;;10.10;99.90;;;;;;4946850;29;20051;-76
2022/12/03 13:06:50;;;;;;;114.47;68.35;;;10.00;99.90;;;;;;4930291;29;20043;-75
2022/12/03 13:09:19;;;;;;;117.22;70.50;;;9.90;99.90;;;;;;4947433;28;20527;-75
2022/12/03 13:11:51;;;;;;;123.53;73.80;;;9.90;99.90;;;;;;4954955;29;20043;-75
2022/12/03 13:14:21;;;;;;;116.03;71.43;;;9.90;99.90;;;;;;4965882;29;20032;-74
2022/12/03 13:16:50;;;;;;;116.80;70.85;;;9.90;99.90;;;;;;4958024;29;20118;-76
2022/12/03 13:19:23;;;;;;;121.07;71.20;;;9.90;99.90;;;;;;4945780;28;20039;-78
2022/12/03 13:21:51;;;;;;;121.72;74.88;;;9.80;99.90;;;;;;4944158;29;20130;-77
2022/12/03 13:24:42;;;;;;;124.65;75.05;;;9.80;99.90;;;;;;4945444;29;20543;-74
2022/12/03 13:27:24;;;;;;;122.97;75.72;;;9.60;99.90;;;;;;4945364;29;20055;-76